createdAt,value
2022-10-25T00:03:10.841Z,9.70
2022-10-25T00:08:09.121Z,12.43
2022-10-25T00:13:06.504Z,9.07
2022-10-25T00:18:14.010Z,6.70
2022-10-25T00:23:14.409Z,10.18
2022-10-25T00:28:16.794Z,9.70
2022-10-25T00:33:14.036Z,10.85
2022-10-25T00:38:12.051Z,10.60
2022-10-25T00:43:09.921Z,9.82
2022-10-25T00:48:11.711Z,10.45
2022-10-25T00:53:13.715Z,12.10
2022-10-25T00:58:14.583Z,12.10
2022-10-25T01:03:12.562Z,9.48
2022-10-25T01:08:12.711Z,10.82
2022-10-25T01:13:10.448Z,14.07
2022-10-25T01:18:15.070Z,11.73
2022-10-25T01:23:28.082Z,10.50
2022-10-25T01:28:37.731Z,10.38
2022-10-25T01:33:49.819Z,13.38
2022-10-25T01:38:51.324Z,18.42
2022-10-25T01:44:00.519Z,13.25
2022-10-25T01:49:02.940Z,11.80
2022-10-25T01:53:59.796Z,13.82
2022-10-25T01:59:23.429Z,10.13
2022-10-25T02:04:33.392Z,13.50
2022-10-25T02:09:33.744Z,12.25
2022-10-25T02:14:35.064Z,12.77
2022-10-25T02:19:35.552Z,21.70
2022-10-25T02:24:35.788Z,13.05
2022-10-25T02:29:35.371Z,9.23
2022-10-25T02:34:33.426Z,9.85
2022-10-25T02:39:33.953Z,16.38
2022-10-25T02:44:31.178Z,14.32
2022-10-25T02:49:28.371Z,14.45
2022-10-25T02:54:26.123Z,13.25
2022-10-25T02:59:23.355Z,11.55
2022-10-25T03:04:20.295Z,12.63
2022-10-25T03:09:17.284Z,16.73
2022-10-25T03:14:18.182Z,12.70
2022-10-25T03:19:15.176Z,15.98
2022-10-25T03:24:12.056Z,16.27
2022-10-25T03:29:08.987Z,13.77
2022-10-25T03:34:06.683Z,15.95
2022-10-25T03:39:03.586Z,12.18
2022-10-25T03:44:00.474Z,12.68
2022-10-25T03:48:57.300Z,15.18
2022-10-25T03:53:54.836Z,17.38
2022-10-25T03:58:53.371Z,18.77
2022-10-25T04:03:51.626Z,18.45
2022-10-25T04:08:48.828Z,21.83
2022-10-25T04:13:48.271Z,22.23
2022-10-25T04:18:45.270Z,19.52
2022-10-25T04:23:54.335Z,15.60
2022-10-25T04:29:09.787Z,25.33
2022-10-25T04:34:27.210Z,31.30
2022-10-25T04:39:25.676Z,24.67
2022-10-25T04:44:23.505Z,30.52
2022-10-25T04:49:21.574Z,28.98
2022-10-25T04:54:18.703Z,26.52
2022-10-25T04:59:24.360Z,33.53
2022-10-25T05:04:32.721Z,35.67
2022-10-25T05:09:33.240Z,29.80
2022-10-25T05:14:33.563Z,33.13
2022-10-25T05:19:32.284Z,37.42
2022-10-25T05:24:29.581Z,58.15
2022-10-25T05:29:26.848Z,71.35
2022-10-25T05:34:24.508Z,49.17
2022-10-25T05:39:37.037Z,45.45
2022-10-25T05:44:39.223Z,46.03
2022-10-25T05:49:41.943Z,36.67
2022-10-25T05:54:40.154Z,47.58
2022-10-25T05:59:37.030Z,40.63
2022-10-25T06:04:34.387Z,46.20
2022-10-25T06:15:18.275Z,39.67
2022-10-25T06:20:17.287Z,31.00
2022-10-25T06:25:19.639Z,27.90
2022-10-25T06:30:16.838Z,19.23
2022-10-25T06:35:56.062Z,14.50
2022-10-25T06:40:52.184Z,24.25
2022-10-25T06:45:49.287Z,17.38
2022-10-25T06:50:48.554Z,24.63
2022-10-25T06:55:48.992Z,18.65
2022-10-25T07:00:48.892Z,20.00
2022-10-25T07:05:46.717Z,23.08
2022-10-25T07:10:55.246Z,20.75
2022-10-25T07:15:56.377Z,18.33
2022-10-25T07:21:06.657Z,19.33
2022-10-25T07:26:11.066Z,17.70
2022-10-25T07:31:19.393Z,22.45
2022-10-25T07:36:18.513Z,17.05
2022-10-25T07:41:27.052Z,17.63
2022-10-25T07:46:24.782Z,12.60
2022-10-25T07:51:22.207Z,11.40
2022-10-25T07:56:23.491Z,10.90
2022-10-25T08:01:26.648Z,13.57
2022-10-25T08:06:25.334Z,15.80
2022-10-25T08:11:22.168Z,10.43
2022-10-25T08:16:19.126Z,16.80
2022-10-25T08:21:16.645Z,13.57
2022-10-25T08:26:24.524Z,15.15
2022-10-25T08:31:31.322Z,11.00
2022-10-25T08:36:29.052Z,7.30
2022-10-25T08:41:33.972Z,6.03
2022-10-25T08:51:41.662Z,12.43
2022-10-25T08:56:46.586Z,10.70
2022-10-25T09:01:47.363Z,14.23
2022-10-25T09:06:56.241Z,10.05
2022-10-25T09:12:05.312Z,11.32
2022-10-25T09:17:23.755Z,15.90
2022-10-25T09:22:27.523Z,15.75
2022-10-25T09:27:34.930Z,15.18
2022-10-25T09:32:52.683Z,14.27
2022-10-25T09:37:55.345Z,9.50
2022-10-25T09:42:56.371Z,13.07
2022-10-25T09:48:01.808Z,12.20
2022-10-25T09:53:09.923Z,11.68
2022-10-25T09:58:16.091Z,12.98
2022-10-25T10:03:14.275Z,12.68
2022-10-25T10:08:17.375Z,10.50
2022-10-25T10:13:20.219Z,14.05
2022-10-25T10:18:29.116Z,13.07
2022-10-25T10:23:28.433Z,14.27
2022-10-25T10:28:25.576Z,12.48
2022-10-25T10:33:23.043Z,14.90
2022-10-25T10:38:27.456Z,13.88
2022-10-25T10:43:30.205Z,11.60
2022-10-25T10:48:36.717Z,13.52
2022-10-25T10:53:37.415Z,9.77
2022-10-25T10:58:38.503Z,13.90
2022-10-25T11:03:59.141Z,12.85
2022-10-25T11:09:15.630Z,15.27
2022-10-25T11:14:15.139Z,13.52
2022-10-25T11:19:26.937Z,12.20
2022-10-25T11:24:32.012Z,13.70
2022-10-25T11:30:03.605Z,16.23
2022-10-25T11:35:10.101Z,15.70
2022-10-25T11:40:15.995Z,12.57
2022-10-25T11:51:14.318Z,17.13
2022-10-25T11:56:23.171Z,14.27
2022-10-25T12:01:35.207Z,17.33
2022-10-25T12:06:40.386Z,14.07
2022-10-25T12:11:53.463Z,10.95
2022-10-25T12:17:23.771Z,13.75
2022-10-25T12:22:30.820Z,13.63
2022-10-25T12:27:44.172Z,13.40
2022-10-25T12:32:49.917Z,18.45
2022-10-25T12:38:18.185Z,15.82
2022-10-25T12:43:24.034Z,11.75
2022-10-25T12:48:50.028Z,19.70
2022-10-25T12:54:12.665Z,13.93
2022-10-25T12:59:34.439Z,10.88
2022-10-25T13:05:31.221Z,13.85
2022-10-25T13:10:57.953Z,16.70
2022-10-25T13:16:04.330Z,24.55
2022-10-25T13:21:02.415Z,20.10
2022-10-25T13:26:09.176Z,17.60
2022-10-25T13:32:01.337Z,14.98
2022-10-25T13:37:00.252Z,15.57
2022-10-25T13:42:10.367Z,16.40
2022-10-25T13:47:28.682Z,13.55
2022-10-25T13:52:30.952Z,16.42
2022-10-25T13:58:10.431Z,15.50
2022-10-25T14:03:46.870Z,14.75
2022-10-25T14:08:54.611Z,19.05
2022-10-25T14:14:02.304Z,25.83
2022-10-25T14:19:07.170Z,16.15
2022-10-25T14:24:12.163Z,14.73
2022-10-25T14:29:32.603Z,20.70
2022-10-25T14:34:33.482Z,17.92
2022-10-25T14:40:05.642Z,20.05
2022-10-25T14:45:41.108Z,19.73
2022-10-25T14:50:56.938Z,23.23
2022-10-25T14:55:59.644Z,20.77
2022-10-25T15:01:05.290Z,22.08
2022-10-25T15:06:07.507Z,18.35
2022-10-25T15:11:10.406Z,20.33
2022-10-25T15:16:37.778Z,9.93
2022-10-25T15:21:43.238Z,26.40
2022-10-25T15:27:01.367Z,17.10
2022-10-25T15:32:02.492Z,16.58
2022-10-25T15:37:16.357Z,16.83
2022-10-25T15:42:15.702Z,27.30
2022-10-25T15:47:28.961Z,15.88
2022-10-25T15:52:27.535Z,12.75
2022-10-25T15:57:28.142Z,15.80
2022-10-25T16:03:38.846Z,15.05
2022-10-25T16:08:38.099Z,18.05
2022-10-25T16:13:38.827Z,22.55
2022-10-25T16:18:38.572Z,20.90
2022-10-25T16:23:40.879Z,21.90
2022-10-25T16:28:54.303Z,22.25
2022-10-25T16:34:10.988Z,17.50
2022-10-25T16:39:12.154Z,23.17
2022-10-25T16:44:18.049Z,19.60
2022-10-25T16:49:21.279Z,26.15
2022-10-25T16:54:30.284Z,19.65
2022-10-25T16:59:28.770Z,17.33
2022-10-25T17:04:28.118Z,16.02
2022-10-25T17:09:29.668Z,18.10
2022-10-25T17:14:35.062Z,16.58
2022-10-25T17:19:36.969Z,14.98
2022-10-25T17:24:39.053Z,23.02
2022-10-25T17:29:38.137Z,22.27
2022-10-25T17:34:38.810Z,14.13
2022-10-25T17:39:59.096Z,12.52
2022-10-25T17:45:16.635Z,16.30
2022-10-25T17:50:16.687Z,14.23
2022-10-25T17:55:18.898Z,18.77
2022-10-25T18:00:16.828Z,17.23
2022-10-25T18:05:20.203Z,17.65
2022-10-25T18:10:19.182Z,12.93
2022-10-25T18:15:16.413Z,16.92
2022-10-25T18:20:17.683Z,22.17
2022-10-25T18:25:15.108Z,17.20
2022-10-25T18:30:16.839Z,17.15
2022-10-25T18:35:14.345Z,12.32
2022-10-25T18:40:13.731Z,10.40
2022-10-25T18:45:10.627Z,13.88
2022-10-25T18:50:11.626Z,14.68
2022-10-25T18:55:09.116Z,14.73
2022-10-25T19:00:08.392Z,11.60
2022-10-25T19:10:03.715Z,13.30
2022-10-25T19:15:00.713Z,11.07
2022-10-25T19:20:04.137Z,11.20
2022-10-25T19:25:04.987Z,14.70
2022-10-25T19:30:02.182Z,8.73
2022-10-25T19:34:59.458Z,13.35
2022-10-25T19:39:58.243Z,11.52
2022-10-25T19:44:56.906Z,9.10
2022-10-25T19:49:53.796Z,12.82
2022-10-25T19:54:50.940Z,8.93
2022-10-25T19:59:47.961Z,14.43
2022-10-25T20:04:45.753Z,9.80
2022-10-25T20:09:47.272Z,10.68
2022-10-25T20:14:44.428Z,10.20
2022-10-25T20:19:41.469Z,12.63
2022-10-25T20:24:39.401Z,19.17
2022-10-25T20:29:44.796Z,12.30
2022-10-25T20:34:41.832Z,12.85
2022-10-25T20:39:39.693Z,6.88
2022-10-25T20:44:36.924Z,10.00
2022-10-25T20:49:34.537Z,14.20
2022-10-25T20:54:34.423Z,9.02
2022-10-25T20:59:33.205Z,8.77
2022-10-25T21:04:52.771Z,10.15
2022-10-25T21:09:49.504Z,19.30
2022-10-25T21:14:47.526Z,9.25
2022-10-25T21:19:44.589Z,9.00
2022-10-25T21:24:41.527Z,9.40
2022-10-25T21:29:39.537Z,6.97
2022-10-25T21:34:37.106Z,11.60
2022-10-25T21:39:33.936Z,8.82
2022-10-25T21:44:30.751Z,6.57
2022-10-25T21:49:27.716Z,7.35
2022-10-25T21:54:27.689Z,8.15
2022-10-25T21:59:24.638Z,9.23
2022-10-25T22:04:23.242Z,6.80
2022-10-25T22:09:20.258Z,10.82
2022-10-25T22:14:18.023Z,11.55
2022-10-25T22:19:16.705Z,7.57
2022-10-25T22:24:14.167Z,13.82
2022-10-25T22:29:12.876Z,5.60
2022-10-25T22:34:10.401Z,6.28
2022-10-25T22:39:08.015Z,7.95
2022-10-25T22:44:05.206Z,8.07
2022-10-25T22:49:05.657Z,7.57
2022-10-25T22:54:03.513Z,7.20
2022-10-25T22:59:02.688Z,8.10
2022-10-25T23:04:01.008Z,7.10
2022-10-25T23:08:59.831Z,9.07
2022-10-25T23:14:01.023Z,6.47
2022-10-25T23:18:59.915Z,7.88
2022-10-25T23:23:58.056Z,9.43
2022-10-25T23:28:55.809Z,8.20
2022-10-25T23:33:54.879Z,8.18
2022-10-25T23:38:52.947Z,4.70
2022-10-25T23:43:50.431Z,6.15
2022-10-25T23:48:47.500Z,7.70
2022-10-25T23:53:45.215Z,7.57
2022-10-25T23:58:42.715Z,5.78
